Time;durP1;ratioP1;P1;durP2;ratioP2;P2;SDS_P1;SDS_P2;PMS_P1;PMS_P2;Temp;Humidity;BMP_temperature;BMP_pressure;BME280_temperature;BME280_humidity;BME280_pressure;Samples;Min_cycle;Max_cycle;Signal;HPM_P1;HPM_P2
2022/08/16 00:01:14;;;;;;;16.40;14.60;;;19.50;99.90;;;;;;5079446;28;20560;-54
2022/08/16 00:03:41;;;;;;;14.13;12.80;;;19.50;99.90;;;;;;5073073;28;20461;-54
2022/08/16 00:06:08;;;;;;;16.00;14.40;;;19.50;99.90;;;;;;5070536;28;20457;-55
2022/08/16 00:08:35;;;;;;;16.47;14.87;;;19.50;99.90;;;;;;5077177;28;20492;-55
2022/08/16 00:11:04;;;;;;;17.03;13.53;;;19.50;99.90;;;;;;5066221;28;20482;-55
2022/08/16 00:13:32;;;;;;;15.87;13.97;;;19.50;99.90;;;;;;5063330;28;20887;-55
2022/08/16 00:15:59;;;;;;;15.90;14.30;;;19.40;99.90;;;;;;5065913;28;20457;-53
2022/08/16 00:18:25;;;;;;;20.60;13.90;;;19.40;99.90;;;;;;5070283;28;20858;-55
2022/08/16 00:20:52;;;;;;;16.33;14.53;;;19.50;99.90;;;;;;5076808;28;20514;-55
2022/08/16 00:23:19;;;;;;;16.20;14.60;;;19.40;99.90;;;;;;5075715;28;20479;-54
2022/08/16 00:25:45;;;;;;;17.83;14.60;;;19.50;99.90;;;;;;5068456;28;20489;-55
2022/08/16 00:28:14;;;;;;;16.93;14.53;;;19.40;99.90;;;;;;5070538;28;20460;-54
2022/08/16 00:30:40;;;;;;;15.17;13.50;;;19.40;99.90;;;;;;5072908;28;20480;-55
2022/08/16 00:33:07;;;;;;;15.57;13.90;;;19.40;99.90;;;;;;5067462;28;20512;-55
2022/08/16 00:35:38;;;;;;;32.83;14.30;;;19.40;99.90;;;;;;5073996;28;20641;-55
2022/08/16 00:38:05;;;;;;;17.30;14.50;;;19.40;99.90;;;;;;5077092;28;20839;-55
2022/08/16 00:40:34;;;;;;;14.63;13.33;;;19.40;99.90;;;;;;5064433;28;20565;-54
2022/08/16 00:43:03;;;;;;;17.50;15.70;;;19.40;99.90;;;;;;5072334;28;20484;-54
2022/08/16 00:45:36;;;;;;;16.00;14.40;;;19.40;99.90;;;;;;5068966;28;20493;-55
2022/08/16 00:48:09;;;;;;;14.87;13.40;;;19.40;99.90;;;;;;5076482;28;20476;-54
2022/08/16 00:50:38;;;;;;;17.00;13.93;;;19.40;99.90;;;;;;5056700;28;20509;-54
2022/08/16 00:53:06;;;;;;;14.77;13.37;;;19.40;99.90;;;;;;5070196;28;20522;-54
2022/08/16 00:55:34;;;;;;;15.27;13.77;;;19.30;99.90;;;;;;5068490;28;20487;-55
2022/08/16 00:58:01;;;;;;;13.23;11.83;;;19.40;99.90;;;;;;5080250;28;20464;-55
2022/08/16 01:00:30;;;;;;;15.53;12.97;;;19.40;99.60;;;;;;5068899;28;20485;-54
2022/08/16 01:03:00;;;;;;;14.73;13.33;;;19.30;98.80;;;;;;5077312;28;20518;-54
2022/08/16 01:05:28;;;;;;;13.83;12.60;;;19.30;98.20;;;;;;5068133;28;20841;-55
2022/08/16 01:07:56;;;;;;;14.93;13.10;;;19.30;97.20;;;;;;5072953;28;20493;-54
2022/08/16 01:10:25;;;;;;;18.30;13.30;;;19.30;97.30;;;;;;5061652;28;20481;-55
2022/08/16 01:12:52;;;;;;;14.03;12.73;;;19.20;96.40;;;;;;5067818;28;20486;-54
2022/08/16 01:15:19;;;;;;;13.20;12.00;;;19.20;96.60;;;;;;5067966;28;20515;-54
2022/08/16 01:17:47;;;;;;;15.53;13.93;;;19.20;96.60;;;;;;5069716;28;20994;-54
2022/08/16 01:20:18;;;;;;;18.10;13.37;;;19.10;96.20;;;;;;5069698;28;20481;-54
2022/08/16 01:22:51;;;;;;;15.53;13.53;;;19.10;97.10;;;;;;5071555;28;20449;-55
2022/08/16 01:25:24;;;;;;;15.87;14.17;;;19.10;96.90;;;;;;5068829;28;20452;-54
2022/08/16 01:27:55;;;;;;;14.50;13.00;;;19.10;96.60;;;;;;5068586;28;20878;-54
2022/08/16 01:30:24;;;;;;;15.40;13.07;;;19.00;95.50;;;;;;5067680;28;20476;-54
2022/08/16 01:32:52;;;;;;;16.30;14.63;;;19.00;95.70;;;;;;5068996;28;20484;-55
2022/08/16 01:35:23;;;;;;;16.27;14.27;;;19.00;96.20;;;;;;5072309;28;20517;-55
2022/08/16 01:37:51;;;;;;;17.80;14.07;;;18.90;96.00;;;;;;5069548;28;20461;-55
2022/08/16 01:40:22;;;;;;;16.33;13.53;;;18.90;95.90;;;;;;5063551;28;20830;-55
2022/08/16 01:42:49;;;;;;;14.37;12.97;;;18.90;96.60;;;;;;5067552;28;20990;-55
2022/08/16 01:45:16;;;;;;;14.13;12.73;;;18.80;96.40;;;;;;5073114;28;20524;-55
2022/08/16 01:47:45;;;;;;;14.40;12.57;;;18.80;96.70;;;;;;5066208;28;20958;-54
2022/08/16 01:50:13;;;;;;;14.43;13.10;;;18.80;96.70;;;;;;5070297;28;20489;-54
2022/08/16 01:52:40;;;;;;;13.53;12.23;;;18.80;96.80;;;;;;5063957;28;21001;-55
2022/08/16 01:55:08;;;;;;;15.83;13.10;;;18.80;97.00;;;;;;5068478;28;20468;-54
2022/08/16 01:57:36;;;;;;;17.57;13.30;;;18.70;96.90;;;;;;5070548;28;20465;-55
2022/08/16 02:00:08;;;;;;;17.70;13.43;;;18.70;97.50;;;;;;5076168;28;20546;-55
2022/08/16 02:02:34;;;;;;;18.63;13.00;;;18.60;98.10;;;;;;5070532;28;20930;-55
2022/08/16 02:05:01;;;;;;;14.80;13.30;;;18.60;98.40;;;;;;5069606;28;20450;-55
2022/08/16 02:07:27;;;;;;;15.50;13.90;;;18.60;98.50;;;;;;5070259;28;21089;-55
2022/08/16 02:09:54;;;;;;;15.23;13.70;;;18.50;98.70;;;;;;5076190;28;20479;-54
2022/08/16 02:12:21;;;;;;;15.03;13.33;;;18.50;98.90;;;;;;5079909;28;20530;-55
2022/08/16 02:14:49;;;;;;;15.27;13.70;;;18.50;98.70;;;;;;5073802;28;20469;-55
2022/08/16 02:17:16;;;;;;;15.70;14.07;;;18.50;99.00;;;;;;5079899;28;20506;-55
2022/08/16 02:19:44;;;;;;;17.50;13.03;;;18.50;99.40;;;;;;5075008;28;20483;-55
2022/08/16 02:22:15;;;;;;;15.50;13.20;;;18.40;99.80;;;;;;5057618;28;20532;-55
2022/08/16 02:24:42;;;;;;;14.03;12.70;;;18.40;99.90;;;;;;5072594;28;21020;-55
2022/08/16 02:27:09;;;;;;;13.77;12.57;;;18.40;99.90;;;;;;5066343;28;20510;-55
2022/08/16 02:29:36;;;;;;;21.50;12.97;;;18.40;99.90;;;;;;5072496;28;20913;-55
2022/08/16 02:32:04;;;;;;;14.30;12.80;;;18.40;99.90;;;;;;5072760;28;20509;-54
2022/08/16 02:34:31;;;;;;;16.37;12.97;;;18.40;99.90;;;;;;5072363;28;20456;-54
2022/08/16 02:36:58;;;;;;;13.90;12.40;;;18.40;99.90;;;;;;5067920;28;20457;-54
2022/08/16 02:39:24;;;;;;;19.90;12.23;;;18.40;99.90;;;;;;5075443;28;20467;-54
2022/08/16 02:41:52;;;;;;;14.77;13.37;;;18.30;99.90;;;;;;5066711;28;20518;-54
2022/08/16 02:44:20;;;;;;;15.33;13.70;;;18.30;99.90;;;;;;5071029;28;20457;-54
2022/08/16 02:46:46;;;;;;;13.17;11.90;;;18.20;99.90;;;;;;5077123;28;20486;-55
2022/08/16 02:49:14;;;;;;;16.30;14.30;;;18.30;99.90;;;;;;5072340;28;21018;-54
2022/08/16 02:51:42;;;;;;;14.00;12.50;;;18.30;99.90;;;;;;5067639;28;20457;-55
2022/08/16 02:54:10;;;;;;;16.67;13.73;;;18.30;99.90;;;;;;5067806;28;20558;-55
2022/08/16 02:56:37;;;;;;;15.87;13.27;;;18.20;99.90;;;;;;5063313;28;20457;-55
2022/08/16 02:59:04;;;;;;;15.60;13.83;;;18.10;99.90;;;;;;5068004;28;20456;-54
2022/08/16 03:01:32;;;;;;;15.47;13.93;;;18.10;99.90;;;;;;5071072;28;20537;-56
2022/08/16 03:04:01;;;;;;;14.07;12.77;;;18.10;99.90;;;;;;5075273;28;20461;-55
2022/08/16 03:06:29;;;;;;;14.37;12.87;;;18.10;99.90;;;;;;5068078;28;20461;-55
2022/08/16 03:08:55;;;;;;;16.33;12.57;;;18.10;99.90;;;;;;5076030;28;20464;-55
2022/08/16 03:11:22;;;;;;;14.37;12.87;;;18.10;99.90;;;;;;5076610;28;20533;-55
2022/08/16 03:13:51;;;;;;;15.50;14.00;;;18.10;99.90;;;;;;5066708;28;20503;-55
2022/08/16 03:16:19;;;;;;;16.70;12.97;;;18.10;99.90;;;;;;5070355;28;20927;-55
2022/08/16 03:18:46;;;;;;;16.63;12.13;;;18.00;99.90;;;;;;5070879;28;20461;-55
2022/08/16 03:21:13;;;;;;;20.13;13.87;;;17.90;99.90;;;;;;5072420;28;20480;-55
2022/08/16 03:23:41;;;;;;;20.37;12.67;;;17.90;99.90;;;;;;5073235;28;20476;-55
2022/08/16 03:26:08;;;;;;;19.53;14.20;;;17.90;99.90;;;;;;5078355;28;20514;-54
2022/08/16 03:28:35;;;;;;;16.37;12.83;;;17.90;99.90;;;;;;5078475;28;20469;-54
2022/08/16 03:31:02;;;;;;;23.90;14.10;;;17.90;99.90;;;;;;5063009;28;21009;-54
2022/08/16 03:33:28;;;;;;;25.17;14.30;;;17.90;99.90;;;;;;5081067;28;20486;-54
2022/08/16 03:35:58;;;;;;;28.97;15.70;;;17.80;99.90;;;;;;5071611;28;20457;-55
2022/08/16 03:38:26;;;;;;;18.50;13.50;;;17.80;99.90;;;;;;5075480;28;20457;-54
2022/08/16 03:40:55;;;;;;;20.73;13.73;;;17.80;99.90;;;;;;5073850;28;20480;-55
2022/08/16 03:43:23;;;;;;;22.37;13.87;;;17.70;99.90;;;;;;5077506;28;20844;-55
2022/08/16 03:45:52;;;;;;;19.70;14.37;;;17.80;99.90;;;;;;5077815;28;20552;-55
2022/08/16 03:48:19;;;;;;;18.37;12.80;;;17.70;99.90;;;;;;5058273;28;20465;-55
2022/08/16 03:50:46;;;;;;;23.57;14.60;;;17.70;99.90;;;;;;5072548;28;20557;-53
2022/08/16 03:53:12;;;;;;;16.90;13.33;;;17.70;99.90;;;;;;5078581;28;20488;-55
2022/08/16 03:55:39;;;;;;;15.50;12.40;;;17.70;99.90;;;;;;5072166;28;20506;-54
2022/08/16 03:58:07;;;;;;;15.17;13.57;;;17.70;99.90;;;;;;5080990;28;20514;-54
2022/08/16 04:00:34;;;;;;;15.60;13.67;;;17.60;99.90;;;;;;5087207;28;20477;-55
2022/08/16 04:03:05;;;;;;;21.37;13.50;;;17.70;99.90;;;;;;5072041;28;20449;-53
2022/08/16 04:05:33;;;;;;;15.10;12.60;;;17.70;99.90;;;;;;5069818;28;20452;-53
2022/08/16 04:08:00;;;;;;;14.67;13.10;;;17.70;99.90;;;;;;5072406;28;20495;-54
2022/08/16 04:10:26;;;;;;;16.27;13.37;;;17.60;99.90;;;;;;5073212;28;20523;-54
2022/08/16 04:12:53;;;;;;;15.23;13.93;;;17.70;99.90;;;;;;5081799;28;20985;-53
2022/08/16 04:15:21;;;;;;;15.13;13.13;;;17.70;99.90;;;;;;5069797;28;20506;-53
2022/08/16 04:17:48;;;;;;;13.97;12.77;;;17.70;99.90;;;;;;5071358;28;20465;-54
2022/08/16 04:20:15;;;;;;;17.73;12.70;;;17.70;99.90;;;;;;5077483;28;20523;-54
2022/08/16 04:22:43;;;;;;;16.53;14.83;;;17.70;99.90;;;;;;5074343;28;20835;-53
2022/08/16 04:25:10;;;;;;;16.23;14.63;;;17.70;99.90;;;;;;5073825;28;20461;-53
2022/08/16 04:27:37;;;;;;;19.47;13.00;;;17.70;99.90;;;;;;5078329;28;20453;-54
2022/08/16 04:30:07;;;;;;;17.43;13.30;;;17.70;99.90;;;;;;5078242;28;20481;-54
2022/08/16 04:32:35;;;;;;;14.00;12.70;;;17.70;99.90;;;;;;5073114;28;20453;-54
2022/08/16 04:35:02;;;;;;;20.67;14.07;;;17.70;99.90;;;;;;5069508;28;20869;-54
2022/08/16 04:37:29;;;;;;;14.87;13.47;;;17.70;99.90;;;;;;5076053;28;20457;-54
2022/08/16 04:39:55;;;;;;;14.30;12.80;;;17.70;99.90;;;;;;5078377;28;20485;-54
2022/08/16 04:42:22;;;;;;;15.00;12.53;;;17.80;99.90;;;;;;5070120;28;20458;-54
2022/08/16 04:44:49;;;;;;;14.33;12.90;;;17.80;99.90;;;;;;5070140;28;20453;-54
2022/08/16 04:47:15;;;;;;;14.17;12.87;;;17.80;99.90;;;;;;5080494;28;20457;-54
2022/08/16 04:49:43;;;;;;;14.63;13.20;;;17.90;99.90;;;;;;5073401;28;20480;-54
2022/08/16 04:52:11;;;;;;;15.30;12.73;;;17.90;99.90;;;;;;5058659;28;20996;-55
2022/08/16 04:54:39;;;;;;;14.00;12.70;;;17.90;99.90;;;;;;5073813;28;20993;-54
2022/08/16 04:57:06;;;;;;;14.60;12.30;;;18.00;99.90;;;;;;5079222;28;20526;-54
2022/08/16 04:59:32;;;;;;;15.07;13.67;;;18.00;99.90;;;;;;5070436;28;20916;-53
2022/08/16 05:01:59;;;;;;;16.63;14.13;;;18.00;99.90;;;;;;5070620;28;20456;-53
2022/08/16 05:04:26;;;;;;;15.20;13.77;;;18.10;99.90;;;;;;5064666;28;20454;-53
2022/08/16 05:06:54;;;;;;;15.97;13.97;;;18.10;99.90;;;;;;5071084;28;20806;-55
2022/08/16 05:09:20;;;;;;;16.60;14.90;;;18.10;99.90;;;;;;5072688;28;20548;-55
2022/08/16 05:11:47;;;;;;;15.90;14.20;;;18.20;99.90;;;;;;5069582;28;20526;-53
2022/08/16 05:14:13;;;;;;;16.33;14.63;;;18.30;99.90;;;;;;5070569;28;20489;-54
2022/08/16 05:16:41;;;;;;;20.47;15.90;;;18.30;99.90;;;;;;5082967;28;20464;-54
2022/08/16 05:19:08;;;;;;;16.57;15.00;;;18.30;99.90;;;;;;5079051;28;20460;-54
2022/08/16 05:21:37;;;;;;;18.17;16.37;;;18.50;99.90;;;;;;5060712;28;20460;-54
2022/08/16 05:24:06;;;;;;;17.50;15.80;;;18.50;99.90;;;;;;5069552;28;20977;-54
2022/08/16 05:26:34;;;;;;;17.07;15.37;;;18.60;99.90;;;;;;5068761;28;20468;-54
2022/08/16 05:29:03;;;;;;;21.47;16.30;;;18.70;99.90;;;;;;5066288;28;20492;-54
2022/08/16 05:31:30;;;;;;;20.50;15.83;;;18.70;99.90;;;;;;5074107;28;20567;-54
2022/08/16 05:33:57;;;;;;;21.87;16.70;;;18.80;99.90;;;;;;5069733;28;20530;-54
2022/08/16 05:36:24;;;;;;;18.03;16.23;;;18.90;99.90;;;;;;5078414;28;20457;-54
2022/08/16 05:38:50;;;;;;;17.27;15.47;;;19.00;99.90;;;;;;5064392;28;20470;-54
2022/08/16 05:41:18;;;;;;;16.83;15.17;;;19.00;99.90;;;;;;5070992;28;20484;-55
2022/08/16 05:43:45;;;;;;;16.30;14.90;;;19.00;99.90;;;;;;5071705;28;20868;-54
2022/08/16 05:46:16;;;;;;;15.93;14.50;;;19.00;99.90;;;;;;5074603;28;20453;-54
2022/08/16 05:48:43;;;;;;;15.53;13.90;;;19.10;99.90;;;;;;5074684;28;20458;-54
2022/08/16 05:51:10;;;;;;;16.50;14.23;;;19.10;99.90;;;;;;5076659;28;20468;-53
2022/08/16 05:53:37;;;;;;;15.90;14.33;;;19.20;99.90;;;;;;5074916;28;20469;-53
2022/08/16 05:56:04;;;;;;;16.87;15.27;;;19.20;99.90;;;;;;5061298;28;20468;-53
2022/08/16 05:58:32;;;;;;;17.43;14.80;;;19.30;99.90;;;;;;5067216;28;20478;-53
2022/08/16 06:00:58;;;;;;;19.50;15.13;;;19.30;99.90;;;;;;5069349;28;20492;-55
2022/08/16 06:03:25;;;;;;;18.07;15.63;;;19.40;99.90;;;;;;5063353;28;20506;-53
2022/08/16 06:05:52;;;;;;;17.80;14.50;;;19.40;99.90;;;;;;5073566;28;20464;-53
2022/08/16 06:08:18;;;;;;;16.93;15.23;;;19.50;99.80;;;;;;5067637;28;20950;-53
2022/08/16 06:10:45;;;;;;;18.43;15.27;;;19.40;99.40;;;;;;5065915;28;20529;-53
2022/08/16 06:13:12;;;;;;;15.60;14.03;;;19.50;98.80;;;;;;5073067;28;20465;-54
2022/08/16 06:15:40;;;;;;;18.20;15.07;;;19.60;98.30;;;;;;5073466;28;20456;-52
2022/08/16 06:18:08;;;;;;;16.87;15.10;;;19.60;97.90;;;;;;5063655;28;20461;-54
2022/08/16 06:20:34;;;;;;;17.60;15.50;;;19.70;96.70;;;;;;5073299;28;20837;-54
2022/08/16 06:23:01;;;;;;;18.43;16.27;;;19.70;96.20;;;;;;5072401;28;20947;-53
2022/08/16 06:25:28;;;;;;;19.30;14.53;;;19.70;95.70;;;;;;5065534;28;20479;-54
2022/08/16 06:27:55;;;;;;;16.97;15.20;;;19.70;95.20;;;;;;5069877;28;20465;-55
2022/08/16 06:30:22;;;;;;;17.20;15.37;;;19.80;94.70;;;;;;5080908;28;21054;-54
2022/08/16 06:32:50;;;;;;;17.20;15.40;;;19.90;94.00;;;;;;5070682;28;20465;-54
2022/08/16 06:35:17;;;;;;;19.23;17.30;;;19.90;93.50;;;;;;5073059;28;20542;-53
2022/08/16 06:37:44;;;;;;;18.60;16.70;;;19.90;93.20;;;;;;5065504;28;20483;-54
2022/08/16 06:40:12;;;;;;;20.87;16.40;;;20.00;92.60;;;;;;5071923;28;20469;-54
2022/08/16 06:42:39;;;;;;;20.47;16.27;;;20.10;92.50;;;;;;5067629;28;20522;-53
2022/08/16 06:45:07;;;;;;;19.67;17.33;;;20.00;92.50;;;;;;5065078;28;20449;-53
2022/08/16 06:47:33;;;;;;;28.47;16.13;;;20.10;92.50;;;;;;5072294;28;20976;-53
2022/08/16 06:50:02;;;;;;;21.00;17.23;;;20.20;92.70;;;;;;5064590;28;20485;-53
2022/08/16 06:52:35;;;;;;;20.33;18.17;;;20.20;92.70;;;;;;5064816;28;20476;-54
2022/08/16 06:55:01;;;;;;;18.83;17.00;;;20.30;92.10;;;;;;5069791;28;20484;-53
2022/08/16 06:57:28;;;;;;;20.83;18.33;;;20.30;93.30;;;;;;5075453;28;20525;-54
2022/08/16 06:59:55;;;;;;;19.07;17.17;;;20.40;95.70;;;;;;5078216;28;20490;-53
2022/08/16 07:02:21;;;;;;;20.30;16.80;;;20.50;98.10;;;;;;5060430;28;20877;-53
2022/08/16 07:04:48;;;;;;;18.97;16.97;;;20.50;99.90;;;;;;5068695;28;20465;-53
2022/08/16 07:07:16;;;;;;;17.50;15.70;;;20.60;99.90;;;;;;5062752;28;20949;-53
2022/08/16 07:09:42;;;;;;;20.87;17.00;;;20.60;99.90;;;;;;5065725;28;20500;-54
2022/08/16 07:12:09;;;;;;;24.97;18.80;;;20.70;99.90;;;;;;5064125;28;20950;-54
2022/08/16 07:14:36;;;;;;;19.90;17.23;;;20.80;99.90;;;;;;5068811;28;20483;-54
2022/08/16 07:17:03;;;;;;;19.60;16.27;;;21.00;99.90;;;;;;5071568;28;20464;-53
2022/08/16 07:19:32;;;;;;;26.73;18.83;;;21.30;99.90;;;;;;5077966;28;20951;-54
2022/08/16 07:22:02;;;;;;;19.73;17.67;;;21.60;99.90;;;;;;5067423;28;20461;-54
2022/08/16 07:24:31;;;;;;;20.00;17.43;;;21.70;99.90;;;;;;5075682;28;20492;-53
2022/08/16 07:26:58;;;;;;;19.67;17.60;;;21.70;40.80;;;;;;5077596;28;20491;-54
2022/08/16 07:29:24;;;;;;;18.23;15.60;;;21.70;52.50;;;;;;5089904;28;20941;-53
2022/08/16 07:31:51;;;;;;;23.80;17.60;;;21.60;55.40;;;;;;5076024;28;20464;-53
2022/08/16 07:34:18;;;;;;;20.40;16.60;;;21.60;82.30;;;;;;5077297;28;20519;-53
2022/08/16 07:36:45;;;;;;;31.27;17.47;;;21.60;86.40;;;;;;5070957;28;20456;-53
2022/08/16 07:39:11;;;;;;;31.27;17.77;;;21.60;86.80;;;;;;5072211;28;20465;-54
2022/08/16 07:41:39;;;;;;;19.37;17.20;;;21.60;87.70;;;;;;5077983;28;20457;-53
2022/08/16 07:44:06;;;;;;;20.20;18.10;;;21.60;97.10;;;;;;5067399;28;20458;-53
2022/08/16 07:46:33;;;;;;;18.53;16.63;;;21.60;94.30;;;;;;5081507;28;20872;-54
2022/08/16 07:49:00;;;;;;;18.60;16.70;;;21.70;99.90;;;;;;5070392;28;20461;-53
2022/08/16 07:51:26;;;;;;;22.80;16.97;;;21.70;99.90;;;;;;5067632;28;20539;-53
2022/08/16 07:53:53;;;;;;;19.40;15.30;;;21.70;99.90;;;;;;5068730;28;20993;-53
2022/08/16 07:56:20;;;;;;;18.93;15.63;;;21.80;99.90;;;;;;5068359;28;20593;-53
2022/08/16 07:58:48;;;;;;;19.07;17.07;;;21.80;99.60;;;;;;5066350;28;20639;-53
2022/08/16 08:01:15;;;;;;;18.10;16.20;;;21.90;99.90;;;;;;5067659;28;20490;-53
2022/08/16 08:03:43;;;;;;;19.87;16.43;;;22.00;99.90;;;;;;5073538;28;20461;-53
2022/08/16 08:06:10;;;;;;;18.87;16.03;;;22.00;99.90;;;;;;5082328;28;20468;-52
2022/08/16 08:08:38;;;;;;;20.60;15.60;;;22.10;99.90;;;;;;5072191;28;20465;-52
2022/08/16 08:11:05;;;;;;;17.57;15.73;;;22.10;99.90;;;;;;5069682;28;20537;-52
2022/08/16 08:13:32;;;;;;;17.27;15.47;;;22.20;99.90;;;;;;5073413;28;20460;-52
2022/08/16 08:16:00;;;;;;;17.50;15.17;;;22.30;99.90;;;;;;5074385;28;20485;-53
2022/08/16 08:18:28;;;;;;;16.20;14.70;;;22.30;99.90;;;;;;5083999;28;20505;-52
2022/08/16 08:20:55;;;;;;;19.00;14.57;;;22.40;99.90;;;;;;5064664;28;20518;-52
2022/08/16 08:23:22;;;;;;;16.20;14.30;;;22.50;99.90;;;;;;5068840;28;20461;-52
2022/08/16 08:25:49;;;;;;;18.53;16.67;;;22.60;99.90;;;;;;5067831;28;20476;-52
2022/08/16 08:28:17;;;;;;;18.23;16.33;;;22.70;99.90;;;;;;5060717;28;20511;-52
2022/08/16 08:30:44;;;;;;;16.43;14.87;;;22.70;99.90;;;;;;5068134;28;20528;-52
2022/08/16 08:33:12;;;;;;;15.40;13.90;;;22.80;99.90;;;;;;5073280;28;20457;-52
2022/08/16 08:35:39;;;;;;;16.23;14.53;;;22.90;99.90;;;;;;5068971;28;20481;-53
2022/08/16 08:38:07;;;;;;;15.67;14.07;;;22.90;86.10;;;;;;5058937;28;20469;-53
2022/08/16 08:40:35;;;;;;;16.80;15.00;;;23.10;99.90;;;;;;5071078;28;20515;-53
2022/08/16 08:43:02;;;;;;;13.53;12.33;;;23.10;21.10;;;;;;5068266;28;20478;-53
2022/08/16 08:45:29;;;;;;;14.83;13.43;;;23.30;52.20;;;;;;5059655;28;20519;-52
2022/08/16 08:47:56;;;;;;;15.97;14.27;;;23.40;71.20;;;;;;5070166;28;20519;-52
2022/08/16 08:50:25;;;;;;;15.87;14.00;;;23.50;73.00;;;;;;5069990;28;20530;-52
2022/08/16 08:52:53;;;;;;;15.90;14.30;;;23.60;66.00;;;;;;5067195;28;21014;-52
2022/08/16 08:55:21;;;;;;;18.73;14.67;;;23.70;79.20;;;;;;5066003;28;20965;-53
2022/08/16 08:57:50;;;;;;;15.43;13.93;;;23.80;83.70;;;;;;5058880;28;20469;-52
2022/08/16 09:00:19;;;;;;;14.53;13.00;;;23.80;95.50;;;;;;5053350;28;20484;-53
2022/08/16 09:02:46;;;;;;;13.30;12.10;;;23.90;87.80;;;;;;5060187;28;20853;-52
2022/08/16 09:05:15;;;;;;;14.70;11.87;;;24.00;99.90;;;;;;5067625;28;20547;-56
2022/08/16 09:07:43;;;;;;;14.53;11.93;;;24.20;99.90;;;;;;5070898;28;20509;-52
2022/08/16 09:10:10;;;;;;;13.37;12.07;;;24.50;99.90;;;;;;5065578;28;20472;-53
2022/08/16 09:12:37;;;;;;;15.27;12.13;;;24.70;99.90;;;;;;5071041;28;20452;-53
2022/08/16 09:15:05;;;;;;;12.73;11.43;;;24.70;99.90;;;;;;5073802;28;20480;-52
2022/08/16 09:17:32;;;;;;;15.13;11.23;;;24.70;99.90;;;;;;5073043;28;20445;-53
2022/08/16 09:19:58;;;;;;;18.30;10.90;;;24.80;99.90;;;;;;5075929;28;20484;-53
2022/08/16 09:22:26;;;;;;;13.60;11.23;;;25.10;99.90;;;;;;5068907;28;20499;-52
2022/08/16 09:24:55;;;;;;;13.10;10.97;;;25.70;99.90;;;;;;5065459;28;20463;-53
2022/08/16 09:27:22;;;;;;;10.90;10.00;;;25.70;38.00;;;;;;5065938;28;20461;-53
2022/08/16 09:29:49;;;;;;;10.70;9.70;;;26.00;34.50;;;;;;5062683;28;20560;-52
2022/08/16 09:32:17;;;;;;;13.67;11.30;;;26.30;44.20;;;;;;5068782;28;20466;-53
2022/08/16 09:34:43;;;;;;;11.73;10.57;;;26.20;39.90;;;;;;5078854;28;20480;-54
2022/08/16 09:37:13;;;;;;;11.07;10.07;;;26.10;44.90;;;;;;5077133;28;20445;-52
2022/08/16 09:39:39;;;;;;;13.33;10.00;;;26.00;23.40;;;;;;5074959;28;20480;-53
2022/08/16 09:42:08;;;;;;;10.83;8.93;;;25.90;49.90;;;;;;5078904;28;20460;-53
2022/08/16 09:44:35;;;;;;;16.50;9.60;;;25.90;71.90;;;;;;5071283;28;20453;-52
2022/08/16 09:47:02;;;;;;;10.73;9.70;;;25.90;54.70;;;;;;5076390;28;20456;-53
2022/08/16 09:49:29;;;;;;;9.83;8.93;;;25.90;60.20;;;;;;5062332;28;20470;-53
2022/08/16 09:51:55;;;;;;;11.17;9.97;;;26.10;69.30;;;;;;5083644;28;20505;-53
2022/08/16 09:54:24;;;;;;;11.20;10.00;;;26.00;76.00;;;;;;5080774;28;20517;-53
2022/08/16 09:56:51;;;;;;;11.60;10.47;;;26.10;63.50;;;;;;5065156;28;20457;-52
2022/08/16 09:59:19;;;;;;;13.43;9.63;;;26.10;59.30;;;;;;5073522;28;20460;-52
2022/08/16 10:01:47;;;;;;;10.60;9.50;;;26.10;69.00;;;;;;5074277;22;20494;-53
2022/08/16 10:04:14;;;;;;;10.70;9.30;;;26.20;83.50;;;;;;5048962;28;20462;-52
2022/08/16 10:06:40;;;;;;;12.50;9.23;;;26.20;71.60;;;;;;5049804;28;20457;-52
2022/08/16 10:09:09;;;;;;;13.33;9.97;;;26.30;84.00;;;;;;5048416;28;20462;-54
2022/08/16 10:14:23;;;;;;;10.33;9.17;;;26.50;80.00;;;;;;5043959;28;20456;-52
2022/08/16 10:16:49;;;;;;;10.67;8.90;;;26.50;98.00;;;;;;5043525;28;20818;-52
2022/08/16 10:19:17;;;;;;;13.07;9.37;;;26.60;98.40;;;;;;5046944;28;20508;-52
2022/08/16 10:21:45;;;;;;;9.77;8.57;;;26.60;99.90;;;;;;5046905;28;20535;-51
2022/08/16 10:24:12;;;;;;;9.90;8.60;;;26.70;99.90;;;;;;5046321;28;20462;-52
2022/08/16 10:26:38;;;;;;;10.70;8.07;;;26.80;99.90;;;;;;5043989;28;20538;-52
2022/08/16 10:29:05;;;;;;;16.07;8.93;;;26.90;99.90;;;;;;5053979;28;20437;-50
2022/08/16 10:31:33;;;;;;;13.80;10.43;;;27.00;99.90;;;;;;5053637;28;20470;-51
2022/08/16 10:34:01;;;;;;;10.60;9.57;;;27.00;99.90;;;;;;5047797;28;20457;-52
2022/08/16 10:36:27;;;;;;;10.70;8.00;;;27.10;99.90;;;;;;5052634;28;20486;-50
2022/08/16 10:38:54;;;;;;;9.30;8.40;;;27.10;99.90;;;;;;5051415;28;20495;-52
2022/08/16 10:41:21;;;;;;;12.10;8.27;;;27.20;99.90;;;;;;5052904;28;20489;-52
2022/08/16 10:43:48;;;;;;;11.93;8.40;;;27.20;99.90;;;;;;5050816;28;20462;-52
2022/08/16 10:46:15;;;;;;;8.17;7.37;;;27.10;99.90;;;;;;5054427;28;20462;-51
2022/08/16 10:48:44;;;;;;;8.23;6.60;;;26.90;99.90;;;;;;5059611;28;20461;-52
2022/08/16 10:51:12;;;;;;;9.83;7.37;;;26.70;99.90;;;;;;5050475;28;20536;-51
2022/08/16 10:53:39;;;;;;;9.60;6.50;;;26.60;99.90;;;;;;5055261;28;20830;-51
2022/08/16 10:56:09;;;;;;;7.53;6.83;;;26.80;99.90;;;;;;5053425;28;20486;-52
2022/08/16 10:58:37;;;;;;;8.23;7.60;;;26.80;99.90;;;;;;5050650;28;20457;-52
2022/08/16 11:01:05;;;;;;;12.40;7.53;;;27.00;99.90;;;;;;5051556;28;20493;-52
2022/08/16 11:03:32;;;;;;;8.03;7.27;;;27.20;99.90;;;;;;5054108;28;20465;-51
2022/08/16 11:06:00;;;;;;;20.43;7.27;;;27.20;99.90;;;;;;5050537;28;20457;-51
2022/08/16 11:08:27;;;;;;;9.03;6.83;;;27.30;99.90;;;;;;5054303;28;20446;-50
2022/08/16 11:10:54;;;;;;;13.37;7.47;;;27.30;99.90;;;;;;5056353;28;20515;-52
2022/08/16 11:13:24;;;;;;;10.23;7.20;;;27.40;99.90;;;;;;5051456;28;20508;-52
2022/08/16 11:15:51;;;;;;;13.17;7.60;;;27.60;99.90;;;;;;5057225;28;20473;-52
2022/08/16 11:18:18;;;;;;;8.73;8.00;;;27.80;99.90;;;;;;5052738;28;20462;-52
2022/08/16 11:20:47;;;;;;;8.60;6.97;;;27.90;99.90;;;;;;5053631;28;20539;-51
2022/08/16 11:23:15;;;;;;;7.77;7.00;;;28.00;99.90;;;;;;5052849;28;20489;-51
2022/08/16 11:25:42;;;;;;;7.03;6.57;;;28.20;99.90;;;;;;5053164;28;20575;-51
2022/08/16 11:28:11;;;;;;;11.13;7.10;;;28.30;99.90;;;;;;5053710;28;20831;-51
2022/08/16 11:30:37;;;;;;;7.27;6.50;;;28.50;99.90;;;;;;5050323;28;20485;-52
2022/08/16 11:33:04;;;;;;;8.37;6.20;;;28.10;99.90;;;;;;5051211;28;20462;-51
2022/08/16 11:35:33;;;;;;;7.27;6.60;;;27.90;99.90;;;;;;5053634;28;20485;-50
2022/08/16 11:38:02;;;;;;;9.70;7.43;;;27.70;99.90;;;;;;5054199;28;20507;-52
2022/08/16 11:40:37;;;;;;;8.47;6.67;;;27.50;99.90;;;;;;5049397;28;20619;-52
2022/08/16 11:43:05;;;;;;;10.20;5.83;;;27.30;99.90;;;;;;5048223;28;21032;-52
2022/08/16 11:45:32;;;;;;;10.80;6.33;;;27.40;99.90;;;;;;5057896;28;20458;-52
2022/08/16 11:47:59;;;;;;;6.87;6.17;;;27.50;99.90;;;;;;5049870;28;20455;-52
2022/08/16 11:50:26;;;;;;;7.20;6.60;;;27.50;99.90;;;;;;5051511;28;20484;-51
2022/08/16 11:52:52;;;;;;;6.50;5.27;;;27.60;99.90;;;;;;5051665;28;20950;-50
2022/08/16 11:55:19;;;;;;;7.40;5.73;;;27.80;99.90;;;;;;5058685;28;20527;-51
2022/08/16 11:57:47;;;;;;;6.93;6.27;;;27.90;99.90;;;;;;5053630;28;20507;-50
2022/08/16 12:00:16;;;;;;;8.37;6.00;;;28.10;99.90;;;;;;5051245;28;20489;-51
2022/08/16 12:02:43;;;;;;;6.10;5.70;;;28.40;99.90;;;;;;5051752;28;20442;-52
2022/08/16 12:05:14;;;;;;;6.83;6.23;;;28.60;99.90;;;;;;5050595;28;20516;-51
2022/08/16 12:07:41;;;;;;;6.00;5.60;;;28.70;99.90;;;;;;5048699;28;20959;-51
2022/08/16 12:10:10;;;;;;;7.07;6.37;;;28.60;99.90;;;;;;5053708;28;20474;-51
2022/08/16 12:12:36;;;;;;;6.03;4.80;;;28.60;1.40;;;;;;5051398;28;20527;-51
2022/08/16 12:15:06;;;;;;;6.80;5.50;;;28.40;99.90;;;;;;5051415;28;20499;-52
2022/08/16 12:17:32;;;;;;;10.60;5.80;;;28.10;99.90;;;;;;5050658;28;20461;-50
2022/08/16 12:19:59;;;;;;;6.83;6.13;;;27.90;99.90;;;;;;5051634;28;20482;-51
2022/08/16 12:22:26;;;;;;;9.17;5.97;;;27.80;99.90;;;;;;5052411;28;20939;-51
2022/08/16 12:24:53;;;;;;;7.87;5.80;;;27.60;99.90;;;;;;5052839;28;20508;-50
2022/08/16 12:27:21;;;;;;;6.13;5.73;;;27.50;99.90;;;;;;5051366;28;20450;-51
2022/08/16 12:29:49;;;;;;;6.07;5.57;;;27.50;99.90;;;;;;5057182;28;20446;-51
2022/08/16 12:32:19;;;;;;;6.73;5.97;;;27.50;99.90;;;;;;5049803;28;20458;-52
2022/08/16 12:34:46;;;;;;;5.90;5.53;;;27.60;99.90;;;;;;5051836;28;21034;-51